Terminal Aerodrome Forecast
Issued by NWS

Home | Current Version | Previous Version | Text Only | Print | Product List | Glossary On
Versions: 1 2 3 4 5 6 7 8 9 10 11 12 13 14 15 16 17 18 19
000
FTUS44 KLZK 202342
TAFHOT
TAF
KHOT 202342Z 2100/2124 26008KT P6SM VCSH BKN040 OVC080
      TEMPO 2100/2103 5SM -RA BR BKN025 OVC040
     FM210300 32007KT 4SM -RA BR BKN015 OVC030
      TEMPO 2103/2107 2SM RA BR OVC008
     FM211200 VRB03KT 3SM -RA BR BKN010
     FM211600 32005KT P6SM VCSH OVC025=

USA.gov is the U.S. government's official web portal to all federal, state and local government web resources and services.